Time;durP1;ratioP1;P1;durP2;ratioP2;P2;SDS_P1;SDS_P2;PMS_P1;PMS_P2;Temp;Humidity;BMP_temperature;BMP_pressure;BME280_temperature;BME280_humidity;BME280_pressure;Samples;Min_cycle;Max_cycle;Signal;HPM_P1;HPM_P2
2021/01/06 00:01:50;;;;;;;24.65;15.53;;;;;;;1.16;79.38;99423.39;1741313;82;21056;-39
2021/01/06 00:04:19;;;;;;;24.52;15.75;;;;;;;1.22;79.20;99431.56;1739706;79;21121;-39
2021/01/06 00:06:48;;;;;;;26.93;17.73;;;;;;;1.26;79.23;99425.08;1731203;82;21142;-39
2021/01/06 00:09:16;;;;;;;24.35;15.38;;;;;;;1.26;79.31;99429.08;1737847;82;21047;-39
2021/01/06 00:11:46;;;;;;;;;;;;;;;1.29;79.16;99421.30;1733560;81;21035;-39
2021/01/06 00:14:15;;;;;;;27.20;17.57;;;;;;;1.36;79.04;99422.75;1723013;82;20235;-39
2021/01/06 00:16:45;;;;;;;27.67;18.30;;;;;;;1.29;79.18;99429.30;1712555;82;21052;-39
2021/01/06 00:19:13;;;;;;;;;;;;;;;1.26;79.06;99428.55;1715334;82;21174;-39
2021/01/06 00:21:41;;;;;;;26.52;17.95;;;;;;;1.26;79.05;99428.55;1733833;82;20224;-39
2021/01/06 00:24:10;;;;;;;31.68;20.15;;;;;;;1.27;79.16;99431.47;1719522;82;21210;-39
2021/01/06 00:26:39;;;;;;;31.33;21.00;;;;;;;1.29;79.18;99419.95;1738467;82;21229;-39
2021/01/06 00:29:12;;;;;;;29.70;18.85;;;;;;;1.26;79.23;99419.73;1746747;82;21410;-39
2021/01/06 00:31:44;;;;;;;32.42;20.37;;;;;;;1.25;79.24;99415.51;1720286;82;21601;-39
2021/01/06 00:34:12;;;;;;;32.23;21.10;;;;;;;1.27;79.20;99418.11;1729416;82;21159;-39
2021/01/06 00:36:43;;;;;;;35.23;22.37;;;;;;;1.25;79.16;99414.17;1728929;82;21395;-39
2021/01/06 00:39:11;;;;;;;;;;;;;;;1.20;79.26;99410.27;1738556;82;20988;-39
2021/01/06 00:41:39;;;;;;;31.65;20.75;;;;;;;1.20;79.35;99411.59;1727381;82;20187;-39
2021/01/06 00:44:08;;;;;;;37.42;21.68;;;;;;;1.17;79.52;99407.63;1738118;82;21142;-39
2021/01/06 00:46:37;;;;;;;34.83;20.75;;;;;;;1.18;79.51;99411.88;1734795;82;21134;-39
2021/01/06 00:49:05;;;;;;;31.80;19.83;;;;;;;1.16;79.40;99403.36;1746813;82;21376;-39
2021/01/06 00:51:34;;;;;;;29.07;19.52;;;;;;;1.18;79.43;99399.08;1730750;81;21963;-39
2021/01/06 00:54:04;;;;;;;32.25;20.55;;;;;;;1.19;79.32;99412.14;1721098;82;25686;-39
2021/01/06 00:56:33;;;;;;;30.95;19.75;;;;;;;1.15;79.34;99416.49;1720035;82;21693;-39
2021/01/06 00:59:02;;;;;;;27.02;18.98;;;;;;;1.11;79.54;99417.38;1728924;82;26750;-39
2021/01/06 01:01:30;;;;;;;32.42;21.00;;;;;;;1.13;79.50;99417.86;1728834;82;21633;-39
2021/01/06 01:03:59;;;;;;;30.97;17.70;;;;;;;1.10;79.61;99401.91;1744167;81;21573;-39
2021/01/06 01:06:30;;;;;;;37.00;22.60;;;;;;;1.07;79.81;99393.13;1744149;82;20996;-39
2021/01/06 01:09:00;;;;;;;36.15;22.85;;;;;;;1.06;79.90;99395.58;1746546;82;21162;-39
2021/01/06 01:11:28;;;;;;;38.70;23.73;;;;;;;1.14;79.78;99388.20;1740117;81;22143;-39
2021/01/06 01:13:56;;;;;;;38.83;23.15;;;;;;;1.17;79.92;99384.93;1736279;82;21393;-39
2021/01/06 01:16:25;;;;;;;34.27;21.73;;;;;;;1.14;79.82;99385.53;1734735;82;21972;-39
2021/01/06 01:18:53;;;;;;;38.02;23.20;;;;;;;1.17;79.65;99388.93;1738054;82;21155;-39
2021/01/06 01:21:22;;;;;;;37.25;22.85;;;;;;;1.18;79.49;99386.52;1723589;82;21012;-39
2021/01/06 01:23:50;;;;;;;37.10;22.95;;;;;;;1.14;79.44;99384.73;1737838;82;21191;-39
2021/01/06 01:26:19;;;;;;;39.90;23.80;;;;;;;1.07;79.55;99382.45;1732076;81;21175;-39
2021/01/06 01:28:47;;;;;;;38.98;23.95;;;;;;;1.14;79.34;99380.19;1735345;82;21174;-38
2021/01/06 01:31:16;;;;;;;37.23;21.87;;;;;;;1.11;79.46;99378.67;1736672;82;21126;-39
2021/01/06 01:33:45;;;;;;;35.75;21.93;;;;;;;1.08;79.65;99381.37;1726971;82;21073;-39
2021/01/06 01:36:13;;;;;;;37.28;21.35;;;;;;;1.11;79.58;99382.67;1743878;82;21134;-39
2021/01/06 01:38:41;;;;;;;44.73;23.47;;;;;;;1.14;79.56;99389.53;1724866;82;21341;-39
2021/01/06 01:41:12;;;;;;;33.83;20.97;;;;;;;1.11;79.63;99377.33;1724504;82;21142;-39
2021/01/06 01:43:40;;;;;;;36.35;21.93;;;;;;;1.08;79.69;99381.91;1727864;82;21000;-39
2021/01/06 01:46:29;;;;;;;37.40;22.82;;;;;;;1.14;79.60;99373.52;1718686;83;21182;-39
2021/01/06 01:48:57;;;;;;;38.58;23.73;;;;;;;1.16;79.65;99374.56;1719563;82;22169;-40
2021/01/06 01:51:41;;;;;;;35.38;21.15;;;;;;;1.17;79.73;99379.59;1731472;82;21483;-40
2021/01/06 01:54:14;;;;;;;35.33;22.73;;;;;;;1.22;79.59;99382.16;1741476;82;21129;-40
2021/01/06 01:57:03;;;;;;;35.05;22.75;;;;;;;1.25;79.43;99378.91;1721381;82;21621;-40
2021/01/06 01:59:39;;;;;;;37.30;22.80;;;;;;;1.22;79.48;99377.36;1704616;81;21162;-40
2021/01/06 02:02:13;;;;;;;36.20;22.15;;;;;;;1.19;79.59;99377.42;1723202;82;21199;-40
2021/01/06 02:04:56;;;;;;;34.10;20.35;;;;;;;1.22;79.47;99376.03;1738323;81;22299;-40
2021/01/06 02:07:27;;;;;;;40.23;22.55;;;;;;;1.18;79.50;99374.50;1719419;82;21581;-40
2021/01/06 02:10:12;;;;;;;32.78;21.00;;;;;;;1.13;79.57;99373.27;1742139;82;21549;-40
2021/01/06 02:12:51;;;;;;;39.18;22.65;;;;;;;1.16;79.70;99371.33;1702861;82;21138;-40
2021/01/06 02:15:35;;;;;;;;;;;;;;;1.26;79.55;99367.13;1727969;82;21480;-40
2021/01/06 02:18:05;;;;;;;40.30;23.80;;;;;;;1.25;79.50;99370.91;1728333;82;21361;-40
2021/01/06 02:20:34;;;;;;;44.03;25.17;;;;;;;1.13;79.79;99370.59;1711151;82;21123;-40
2021/01/06 02:23:02;;;;;;;40.45;24.57;;;;;;;1.16;79.72;99372.66;1734545;82;21135;-40
2021/01/06 02:25:32;;;;;;;41.42;26.45;;;;;;;1.20;79.61;99360.33;1713677;82;21142;-39
2021/01/06 02:28:00;;;;;;;40.53;24.23;;;;;;;1.20;79.65;99362.20;1711132;82;21198;-40
2021/01/06 02:30:28;;;;;;;46.80;26.10;;;;;;;1.21;79.51;99365.89;1708900;82;21451;-39
2021/01/06 02:32:57;;;;;;;45.17;27.80;;;;;;;1.24;79.47;99365.31;1720320;82;21205;-40
2021/01/06 02:35:25;;;;;;;53.75;28.95;;;;;;;1.23;79.59;99363.72;1733476;82;21226;-39
2021/01/06 02:37:53;;;;;;;47.60;26.37;;;;;;;1.22;79.69;99369.35;1713531;82;21155;-39
2021/01/06 02:40:25;;;;;;;46.00;26.60;;;;;;;1.21;79.61;99373.13;1712794;82;21111;-39
2021/01/06 02:42:52;;;;;;;46.90;26.80;;;;;;;1.25;79.60;99366.11;1712167;82;21202;-40
2021/01/06 02:45:21;;;;;;;51.25;28.95;;;;;;;1.26;79.67;99356.98;1736539;82;21158;-40
2021/01/06 02:47:49;;;;;;;44.13;26.27;;;;;;;1.23;79.75;99357.05;1738410;82;21146;-39
2021/01/06 02:50:22;;;;;;;50.43;28.43;;;;;;;1.24;79.80;99357.84;1738076;82;21139;-39
2021/01/06 02:52:55;;;;;;;52.48;28.40;;;;;;;1.29;79.70;99353.73;1714960;82;21127;-40
2021/01/06 02:55:25;;;;;;;52.00;29.57;;;;;;;1.28;79.61;99358.28;1775062;79;21375;-39
2021/01/06 02:57:53;;;;;;;;;;;;;;;1.23;79.63;99358.92;1797356;79;21004;-39
2021/01/06 03:00:25;;;;;;;54.83;29.10;;;;;;;1.23;79.69;99365.05;1747038;79;20271;-40
2021/01/06 03:02:54;;;;;;;55.75;30.92;;;;;;;1.15;79.86;99372.44;1790652;79;21286;-40
2021/01/06 03:05:39;;;;;;;55.85;30.45;;;;;;;1.15;79.96;99378.31;1807388;79;21146;-40
2021/01/06 03:08:11;;;;;;;59.50;31.25;;;;;;;1.14;79.93;99378.06;1811554;79;21352;-40
2021/01/06 03:10:39;;;;;;;57.88;31.37;;;;;;;1.15;79.94;99363.09;1809344;78;20984;-39
2021/01/06 03:13:08;;;;;;;53.10;30.60;;;;;;;1.16;80.01;99365.22;1801702;79;21149;-39
2021/01/06 03:15:36;;;;;;;53.15;29.55;;;;;;;1.16;80.07;99367.89;1782421;79;21401;-39
2021/01/06 03:18:06;;;;;;;54.38;31.17;;;;;;;1.18;80.04;99370.50;1806414;79;21173;-39
2021/01/06 03:20:37;;;;;;;58.78;32.25;;;;;;;1.26;79.78;99365.78;1806896;78;22109;-39
2021/01/06 03:23:14;;;;;;;61.25;34.43;;;;;;;1.27;79.58;99375.92;1793097;79;21162;-40
2021/01/06 03:25:42;;;;;;;54.27;31.55;;;;;;;1.23;79.66;99369.06;1798045;79;21174;-39
2021/01/06 03:28:12;;;;;;;51.25;30.52;;;;;;;1.26;79.78;99372.46;1779900;79;21554;-39
2021/01/06 03:30:40;;;;;;;50.45;26.17;;;;;;;1.35;79.55;99379.80;1812565;78;21146;-40
2021/01/06 03:33:26;;;;;;;57.15;32.60;;;;;;;1.40;79.41;99376.48;1797095;79;21350;-40
2021/01/06 03:35:59;;;;;;;60.40;32.10;;;;;;;1.41;79.28;99380.71;1768569;80;20952;-39
2021/01/06 03:38:34;;;;;;;59.42;31.30;;;;;;;1.40;79.30;99383.16;1783255;79;21094;-40
2021/01/06 03:41:05;;;;;;;60.65;32.45;;;;;;;1.42;79.10;99374.83;1784475;79;21125;-40
2021/01/06 03:43:36;;;;;;;55.03;32.55;;;;;;;1.41;79.09;99376.70;1803441;79;21565;-40
2021/01/06 03:46:11;;;;;;;52.17;30.05;;;;;;;1.40;79.20;99375.69;1807211;79;22273;-40
2021/01/06 03:49:01;;;;;;;51.90;29.65;;;;;;;1.42;79.14;99375.63;1769748;79;21166;-40
2021/01/06 03:51:43;;;;;;;56.30;31.80;;;;;;;1.48;79.00;99377.11;1769514;79;21016;-40
2021/01/06 03:54:50;;;;;;;63.65;34.90;;;;;;;1.50;78.91;99376.25;1789562;79;21162;-40
2021/01/06 03:57:18;;;;;;;52.65;30.50;;;;;;;1.46;78.85;99381.95;1783618;79;21424;-40
2021/01/06 03:59:48;;;;;;;60.23;33.60;;;;;;;1.17;78.85;99332.86;1803888;79;21295;-40
2021/01/06 04:02:38;;;;;;;55.38;32.10;;;;;;;1.51;78.79;99383.72;1803131;79;21564;-40
2021/01/06 04:05:15;;;;;;;71.85;35.65;;;;;;;1.50;78.74;99376.82;1794727;78;21377;-40
2021/01/06 04:07:55;;;;;;;55.95;32.42;;;;;;;1.42;78.74;99384.18;1756160;79;21143;-40
2021/01/06 04:10:36;;;;;;;69.53;36.58;;;;;;;1.39;78.91;99380.23;1761941;81;21163;-40
2021/01/06 04:13:05;;;;;;;62.15;35.48;;;;;;;1.47;78.86;99374.72;1734401;81;21404;-40
2021/01/06 04:15:33;;;;;;;59.03;33.98;;;;;;;1.46;78.90;99373.14;1743536;79;21815;-40
2021/01/06 04:18:01;;;;;;;57.83;34.15;;;;;;;1.45;79.01;99373.70;1711287;81;21114;-40
2021/01/06 04:20:39;;;;;;;59.90;33.70;;;;;;;1.47;78.88;99374.72;1746913;81;21160;-40
2021/01/06 04:23:11;;;;;;;60.33;36.00;;;;;;;1.53;78.73;99377.00;1734439;81;21184;-40
2021/01/06 04:25:44;;;;;;;63.83;36.50;;;;;;;1.54;78.73;99368.45;1758634;81;21207;-40
2021/01/06 04:28:16;;;;;;;59.00;32.63;;;;;;;1.52;78.70;99370.61;1742413;81;21588;-40
2021/01/06 04:30:55;;;;;;;59.42;32.15;;;;;;;1.52;78.69;99382.64;1741338;79;21434;-40
2021/01/06 04:33:38;;;;;;;56.90;33.85;;;;;;;1.61;78.59;99375.49;1761716;81;21606;-40
2021/01/06 04:36:18;;;;;;;61.13;33.78;;;;;;;1.63;78.47;99375.45;1739072;81;21180;-40
2021/01/06 04:38:52;;;;;;;55.67;32.80;;;;;;;1.59;78.45;99386.50;1764396;81;21212;-40
2021/01/06 04:41:37;;;;;;;51.45;31.35;;;;;;;1.57;78.39;99380.66;1736109;81;22346;-40
2021/01/06 04:44:32;;;;;;;50.45;30.40;;;;;;;1.58;78.38;99381.45;1767288;81;21079;-40
2021/01/06 04:47:33;;;;;;;49.53;30.12;;;;;;;1.53;78.53;99380.22;1729351;81;21445;-40
2021/01/06 04:50:25;;;;;;;44.38;27.85;;;;;;;1.47;78.74;99392.88;1739181;81;21575;-40
2021/01/06 04:53:27;;;;;;;47.13;28.38;;;;;;;1.51;78.80;99398.41;1748532;79;21370;-40
2021/01/06 04:56:33;;;;;;;53.83;31.40;;;;;;;1.54;78.67;99395.95;1738465;81;21176;-40
2021/01/06 04:59:37;;;;;;;46.13;28.67;;;;;;;1.49;78.82;99392.59;1762119;79;21110;-40
2021/01/06 05:02:41;;;;;;;46.25;28.00;;;;;;;1.51;78.84;99397.08;1751869;81;21610;-40
2021/01/06 05:05:27;;;;;;;50.40;29.87;;;;;;;1.56;78.73;99395.64;1731654;81;21222;-41
2021/01/06 05:08:24;;;;;;;48.68;28.75;;;;;;;1.57;78.87;99399.90;1732336;81;22110;-40
2021/01/06 05:11:16;;;;;;;43.52;25.77;;;;;;;1.56;78.94;99393.77;1704735;82;21161;-41
2021/01/06 05:14:10;;;;;;;44.03;27.93;;;;;;;1.58;78.91;99399.61;1715495;82;21150;-40
2021/01/06 05:16:41;;;;;;;44.25;28.83;;;;;;;1.63;78.70;99399.51;1738880;81;21967;-40
2021/01/06 05:19:22;;;;;;;48.73;28.65;;;;;;;1.57;78.65;99407.91;1738015;82;21095;-40
2021/01/06 05:21:51;;;;;;;41.42;26.40;;;;;;;1.53;78.72;99406.39;1738455;81;21337;-40
2021/01/06 05:24:43;;;;;;;46.20;28.77;;;;;;;1.57;78.78;99409.25;1767235;80;20982;-41
2021/01/06 05:27:22;;;;;;;47.85;30.88;;;;;;;1.63;78.56;99412.08;1790302;79;21619;-41
2021/01/06 05:29:56;;;;;;;47.70;29.92;;;;;;;1.55;78.70;99406.10;1798000;79;21111;-41
2021/01/06 05:32:38;;;;;;;49.75;30.27;;;;;;;1.54;78.85;99405.31;1781257;79;21625;-41
2021/01/06 05:35:08;;;;;;;;;;;;;;;1.59;78.76;99407.88;1748689;79;21474;-40
2021/01/06 05:37:38;;;;;;;54.80;32.78;;;;;;;1.66;78.61;99406.12;1777741;79;20268;-40
2021/01/06 05:40:11;;;;;;;58.23;33.05;;;;;;;1.57;78.83;99407.37;1792252;79;21015;-41
2021/01/06 05:42:44;;;;;;;56.02;32.40;;;;;;;1.60;78.76;99407.30;1775515;79;21023;-41
2021/01/06 05:45:12;;;;;;;51.98;32.28;;;;;;;1.59;78.73;99405.75;1800797;79;21115;-40
2021/01/06 05:47:43;;;;;;;56.05;32.90;;;;;;;1.63;78.60;99406.73;1791253;79;21370;-40
2021/01/06 05:50:31;;;;;;;58.50;34.58;;;;;;;1.63;78.70;99398.71;1790659;79;21143;-40
2021/01/06 05:53:25;;;;;;;56.40;34.05;;;;;;;1.59;78.67;99397.73;1784701;79;21106;-40
2021/01/06 05:55:53;;;;;;;59.10;34.95;;;;;;;1.59;78.69;99403.08;1786984;77;21164;-40
2021/01/06 05:58:27;;;;;;;57.58;35.23;;;;;;;1.60;78.65;99405.97;1797478;79;21147;-40
2021/01/06 06:01:24;;;;;;;64.07;34.63;;;;;;;1.61;78.69;99412.91;1801765;79;21343;-40
2021/01/06 06:04:18;;;;;;;55.25;33.33;;;;;;;1.59;78.64;99410.55;1795762;79;21099;-40
2021/01/06 06:07:14;;;;;;;54.58;34.15;;;;;;;1.59;78.56;99420.44;1811945;79;21166;-40
2021/01/06 06:10:12;;;;;;;59.48;34.58;;;;;;;1.61;78.60;99418.25;1783130;79;21136;-40
2021/01/06 06:13:10;;;;;;;62.17;33.42;;;;;;;1.63;78.74;99417.41;1805052;79;21581;-39
2021/01/06 06:16:05;;;;;;;55.52;32.00;;;;;;;1.64;78.67;99433.16;1784090;79;23510;-39
2021/01/06 06:18:53;;;;;;;57.17;32.13;;;;;;;1.71;78.47;99430.06;1752918;79;21149;-39
2021/01/06 06:21:32;;;;;;;57.05;34.05;;;;;;;1.76;78.31;99432.63;1766711;79;21103;-40
2021/01/06 06:24:30;;;;;;;57.45;31.48;;;;;;;1.77;78.24;99434.77;1782826;79;21135;-39
2021/01/06 06:27:24;;;;;;;58.13;30.95;;;;;;;1.76;78.19;99440.65;1808954;79;21126;-39
2021/01/06 06:30:21;;;;;;;52.93;32.23;;;;;;;1.80;78.22;99442.97;1761315;79;21271;-39
2021/01/06 06:32:49;;;;;;;52.23;30.95;;;;;;;1.87;78.10;99444.70;1772212;79;21150;-39
2021/01/06 06:35:36;;;;;;;55.75;31.48;;;;;;;1.89;77.98;99449.19;1781799;79;21031;-39
2021/01/06 06:38:07;;;;;;;48.23;29.30;;;;;;;1.93;78.02;99440.84;1781825;79;21145;-39
2021/01/06 06:41:04;;;;;;;46.73;29.52;;;;;;;2.03;77.80;99449.19;1803961;79;21126;-39
2021/01/06 06:43:47;;;;;;;43.68;27.05;;;;;;;2.14;77.50;99448.64;1784833;79;21355;-39
2021/01/06 06:46:46;;;;;;;49.03;30.15;;;;;;;2.16;77.08;99447.81;1784546;79;21620;-40
2021/01/06 06:49:37;;;;;;;45.15;27.45;;;;;;;2.12;77.07;99440.15;1796045;79;21171;-41
2021/01/06 06:52:28;;;;;;;45.28;26.55;;;;;;;2.03;77.11;99439.83;1782035;79;21082;-40
2021/01/06 06:55:08;;;;;;;42.23;26.82;;;;;;;2.09;77.25;99445.28;1781385;80;21569;-40
2021/01/06 06:57:48;;;;;;;38.50;25.52;;;;;;;2.18;76.89;99443.47;1788251;79;21350;-41
2021/01/06 07:00:23;;;;;;;45.85;28.35;;;;;;;2.12;76.83;99437.47;1806395;77;21130;-41
2021/01/06 07:02:59;;;;;;;39.83;25.55;;;;;;;2.06;76.87;99445.35;1784908;79;21134;-41
2021/01/06 07:05:37;;;;;;;37.38;24.37;;;;;;;2.06;77.05;99442.68;1793571;77;21184;-41
2021/01/06 07:08:10;;;;;;;34.90;23.98;;;;;;;2.12;76.95;99444.16;1813454;77;21659;-40
2021/01/06 07:10:46;;;;;;;44.08;26.52;;;;;;;2.26;76.86;99444.11;1807314;78;21350;-40
2021/01/06 07:13:19;;;;;;;41.85;26.73;;;;;;;2.33;76.69;99450.36;1794412;80;21227;-41
2021/01/06 07:15:58;;;;;;;44.67;25.57;;;;;;;2.34;76.53;99455.97;1829985;77;21030;-41
2021/01/06 07:18:43;;;;;;;38.00;24.77;;;;;;;2.36;76.53;99454.59;1821041;77;21014;-40
2021/01/06 07:21:17;;;;;;;37.93;25.15;;;;;;;2.39;76.30;99457.19;1808734;78;21204;-40
2021/01/06 07:24:09;;;;;;;38.02;25.65;;;;;;;2.38;76.08;99455.59;1794458;79;21192;-41
2021/01/06 07:26:58;;;;;;;43.05;26.55;;;;;;;2.35;76.09;99450.86;1782639;79;21600;-41
2021/01/06 07:29:32;;;;;;;35.70;24.47;;;;;;;2.26;76.28;99452.68;1767465;80;22174;-40
2021/01/06 07:32:06;;;;;;;;;;;;;;;2.26;76.46;99452.68;1795094;80;21055;-40
2021/01/06 07:34:56;;;;;;;34.60;22.67;;;;;;;2.34;76.36;99459.43;1785444;79;20277;-40
2021/01/06 07:37:34;;;;;;;30.15;18.37;;;;;;;2.38;76.34;99456.39;1790770;78;21470;-40
2021/01/06 07:40:26;;;;;;;35.08;23.27;;;;;;;2.50;76.30;99462.55;1776302;80;21154;-40
2021/01/06 07:43:12;;;;;;;36.73;24.25;;;;;;;2.58;75.96;99462.61;1774524;79;21100;-41
2021/01/06 07:46:13;;;;;;;33.78;21.42;;;;;;;2.59;75.69;99465.54;1782825;80;21208;-40
2021/01/06 07:48:56;;;;;;;30.57;20.68;;;;;;;2.66;75.57;99465.13;1788856;79;21145;-40
2021/01/06 07:51:41;;;;;;;28.62;19.73;;;;;;;2.81;75.24;99458.03;1793835;80;21337;-40
2021/01/06 07:54:15;;;;;;;29.98;20.70;;;;;;;2.89;75.13;99458.66;1802802;79;21134;-40
2021/01/06 07:57:12;;;;;;;28.45;19.42;;;;;;;2.99;75.04;99462.97;1800326;79;21552;-41
2021/01/06 07:59:56;;;;;;;29.95;19.77;;;;;;;3.10;74.71;99464.84;1808117;78;21173;-40
2021/01/06 08:05:28;;;;;;;26.27;17.50;;;;;;;3.14;73.96;99464.47;1845072;76;22698;-39
2021/01/06 08:08:15;;;;;;;25.05;17.27;;;;;;;3.14;73.86;99472.50;1784494;80;21023;-39
2021/01/06 08:10:46;;;;;;;26.37;17.85;;;;;;;3.26;73.74;99470.82;1796430;79;21231;-39
2021/01/06 08:13:26;;;;;;;28.62;19.05;;;;;;;3.34;73.58;99465.28;1778492;79;21636;-39
2021/01/06 08:16:21;;;;;;;31.17;19.85;;;;;;;3.37;73.37;99468.67;1797487;79;20979;-39
2021/01/06 08:19:20;;;;;;;27.00;19.23;;;;;;;3.40;73.22;99470.72;1784962;79;21019;-39
2021/01/06 08:22:14;;;;;;;24.65;16.85;;;;;;;3.42;73.20;99468.53;1811725;78;21015;-39
2021/01/06 08:24:50;;;;;;;23.92;16.97;;;;;;;3.50;72.73;99475.81;1792632;79;23443;-39
2021/01/06 08:27:36;;;;;;;24.18;18.32;;;;;;;3.57;72.64;99470.01;1826535;77;23126;-39
2021/01/06 08:30:23;;;;;;;31.27;19.17;;;;;;;3.58;72.57;99475.07;1791370;78;21162;-41
2021/01/06 08:33:09;;;;;;;28.60;18.92;;;;;;;3.60;72.31;99474.19;1788573;79;21377;-42
2021/01/06 08:35:42;;;;;;;27.90;19.57;;;;;;;3.62;72.40;99470.66;1808369;78;21039;-42
2021/01/06 08:38:30;;;;;;;28.77;19.10;;;;;;;3.64;72.13;99473.80;1790201;78;21011;-42
2021/01/06 08:41:18;;;;;;;22.20;16.40;;;;;;;3.61;72.11;99479.80;1811340;79;21031;-42
2021/01/06 08:43:47;;;;;;;26.30;17.62;;;;;;;3.60;72.10;99488.94;1794639;79;21035;-41
2021/01/06 08:46:22;;;;;;;24.10;16.80;;;;;;;3.69;71.97;99478.23;1788362;79;21705;-42
2021/01/06 08:48:51;;;;;;;25.40;18.42;;;;;;;3.70;71.84;99485.98;1794383;78;21057;-42
2021/01/06 08:51:33;;;;;;;27.65;18.65;;;;;;;3.71;71.80;99480.07;1785020;79;21035;-42
2021/01/06 08:54:17;;;;;;;27.67;18.45;;;;;;;3.69;71.64;99477.69;1795890;78;21605;-42
2021/01/06 08:56:45;;;;;;;25.43;17.45;;;;;;;3.64;71.64;99473.80;1776436;79;21632;-42
2021/01/06 08:59:27;;;;;;;23.38;16.07;;;;;;;3.57;71.68;99472.69;1733334;79;21198;-41
2021/01/06 09:01:59;;;;;;;26.77;17.82;;;;;;;3.53;71.76;99479.77;1797869;78;21150;-41
2021/01/06 09:04:42;;;;;;;29.20;17.00;;;;;;;3.43;71.89;99468.78;1776352;79;21039;-41
2021/01/06 09:07:26;;;;;;;26.12;17.70;;;;;;;3.29;72.26;99471.53;1787866;79;21385;-42
2021/01/06 09:10:11;;;;;;;28.23;18.48;;;;;;;3.22;72.75;99474.42;1759243;78;21159;-42
2021/01/06 09:12:51;;;;;;;24.77;17.02;;;;;;;3.19;72.91;99475.05;1788095;78;21274;-42
2021/01/06 09:15:50;;;;;;;24.80;17.70;;;;;;;3.24;72.92;99481.62;1792944;78;21157;-42
2021/01/06 09:18:26;;;;;;;25.10;17.45;;;;;;;3.33;72.86;99486.47;1801300;79;21333;-41
2021/01/06 09:21:06;;;;;;;26.37;18.48;;;;;;;3.39;72.94;99481.98;1796675;79;21389;-42
2021/01/06 09:23:35;;;;;;;27.32;18.60;;;;;;;3.47;72.78;99477.77;1795220;79;21154;-42
2021/01/06 09:26:05;;;;;;;31.77;19.25;;;;;;;3.52;72.54;99476.30;1803949;79;21365;-40
2021/01/06 09:28:36;;;;;;;;;;;;;;;3.50;72.31;99476.60;1780623;80;21445;-41
2021/01/06 09:31:06;;;;;;;29.20;18.82;;;;;;;3.45;72.38;99475.39;1779824;78;20191;-41
2021/01/06 09:33:37;;;;;;;28.90;19.82;;;;;;;3.35;72.65;99470.85;1754585;80;21162;-41
2021/01/06 09:36:08;;;;;;;29.57;19.35;;;;;;;3.38;72.65;99476.41;1774456;80;21182;-41
2021/01/06 09:38:46;;;;;;;32.15;21.57;;;;;;;3.48;72.46;99468.64;1772935;80;21189;-41
2021/01/06 09:41:18;;;;;;;38.42;22.62;;;;;;;3.50;72.39;99467.77;1763682;80;22190;-41
2021/01/06 09:43:50;;;;;;;35.73;23.77;;;;;;;3.48;72.48;99467.30;1780182;80;21163;-41
2021/01/06 09:47:02;;;;;;;37.70;24.10;;;;;;;3.49;72.57;99465.63;1778559;80;21959;-41
2021/01/06 09:49:38;;;;;;;36.63;23.10;;;;;;;3.53;72.41;99463.69;1755244;80;21152;-41
2021/01/06 09:52:35;;;;;;;33.00;20.02;;;;;;;3.49;72.47;99463.50;1764899;78;21408;-40
2021/01/06 09:55:06;;;;;;;37.95;22.00;;;;;;;3.61;72.36;99466.39;1725921;80;21138;-41
2021/01/06 09:57:39;;;;;;;35.23;22.45;;;;;;;3.72;72.18;99461.55;1768459;80;21169;-41
2021/01/06 10:00:27;;;;;;;41.68;23.47;;;;;;;3.80;72.15;99458.88;1714246;80;21147;-41
2021/01/06 10:02:55;;;;;;;40.12;24.98;;;;;;;3.85;71.76;99464.10;1761142;79;21205;-43
2021/01/06 10:05:55;;;;;;;38.67;23.77;;;;;;;3.82;71.77;99459.37;1776062;79;21827;-41
2021/01/06 10:08:41;;;;;;;42.83;23.00;;;;;;;3.83;71.65;99471.66;1751596;80;21581;-41
2021/01/06 10:11:47;;;;;;;41.65;22.22;;;;;;;3.78;71.68;99471.80;1759462;80;21178;-41
2021/01/06 10:15:00;;;;;;;35.15;22.82;;;;;;;3.84;71.35;99465.19;1757323;80;21522;-41
2021/01/06 10:17:33;;;;;;;42.73;24.55;;;;;;;3.86;71.37;99464.34;1780744;80;21342;-40
2021/01/06 10:20:10;;;;;;;43.40;25.10;;;;;;;3.89;71.46;99468.28;1780700;80;21404;-41
2021/01/06 10:22:56;;;;;;;43.25;25.75;;;;;;;3.87;71.26;99470.50;1778512;79;21597;-41
2021/01/06 10:25:36;;;;;;;44.33;26.12;;;;;;;3.84;71.36;99475.13;1743795;81;21601;-42
2021/01/06 10:28:33;;;;;;;43.70;25.52;;;;;;;3.81;71.39;99477.89;1782710;79;21064;-42
2021/01/06 10:31:06;;;;;;;43.00;23.20;;;;;;;3.81;71.42;99483.26;1774550;79;21151;-41
2021/01/06 10:33:38;;;;;;;44.75;25.82;;;;;;;3.77;71.35;99478.83;1772585;79;21372;-42
2021/01/06 10:36:47;;;;;;;43.30;25.55;;;;;;;3.78;71.34;99478.50;1759549;80;21171;-42
2021/01/06 10:39:41;;;;;;;41.85;25.23;;;;;;;3.80;71.09;99478.99;1689020;84;22349;-42
2021/01/06 10:42:27;;;;;;;45.30;26.75;;;;;;;3.69;71.31;99481.71;1803120;79;21216;-42
2021/01/06 10:45:04;;;;;;;54.50;26.33;;;;;;;3.66;71.56;99485.56;1776179;79;21150;-44
2021/01/06 10:47:41;;;;;;;46.95;26.50;;;;;;;3.61;71.58;99486.50;1776728;79;21202;-43
2021/01/06 10:50:31;;;;;;;52.03;26.82;;;;;;;3.59;71.78;99488.69;1782049;79;21166;-43
2021/01/06 10:53:17;;;;;;;43.70;26.33;;;;;;;3.55;71.82;99486.94;1787007;79;21124;-43
2021/01/06 10:56:11;;;;;;;48.98;26.00;;;;;;;3.49;72.06;99480.92;1777001;79;21142;-43
2021/01/06 10:59:06;;;;;;;43.28;24.70;;;;;;;3.59;72.11;99479.31;1731012;79;21206;-43
2021/01/06 11:01:52;;;;;;;50.95;26.60;;;;;;;3.74;71.93;99478.89;1796566;79;21473;-43
2021/01/06 11:04:47;;;;;;;51.35;28.07;;;;;;;3.74;71.87;99477.55;1772530;79;21190;-43
2021/01/06 11:07:48;;;;;;;54.38;28.92;;;;;;;3.75;71.93;99472.43;1761561;81;21518;-43
2021/01/06 11:10:24;;;;;;;60.43;30.23;;;;;;;3.77;71.95;99467.56;1779646;79;21146;-44
2021/01/06 11:13:15;;;;;;;52.20;27.58;;;;;;;3.71;71.80;99463.44;1789767;79;20921;-44
2021/01/06 11:16:06;;;;;;;53.52;29.52;;;;;;;3.66;71.86;99461.44;1804497;79;21388;-43
2021/01/06 11:18:41;;;;;;;52.80;28.17;;;;;;;3.64;71.94;99458.27;1732124;82;21000;-43
2021/01/06 11:22:46;;;;;;;52.75;28.85;;;;;;;3.61;72.18;99466.94;1792614;79;22389;-43
2021/01/06 11:25:49;;;;;;;56.68;29.75;;;;;;;3.49;72.47;99462.16;1766949;80;21613;-43
2021/01/06 11:28:55;;;;;;;41.05;20.75;;;;;;;3.50;72.59;99461.86;1714113;83;22277;-43
2021/01/06 11:31:35;;;;;;;54.38;29.40;;;;;;;3.52;72.55;99470.94;1681710;83;21000;-43
2021/01/06 11:34:15;;;;;;;41.85;22.90;;;;;;;3.62;72.41;99476.02;1699719;83;21071;-43
2021/01/06 11:36:56;;;;;;;48.75;27.82;;;;;;;3.70;72.34;99463.73;1725087;83;21000;-42
2021/01/06 11:39:43;;;;;;;59.65;30.65;;;;;;;3.74;72.16;99460.12;1707602;83;20976;-42
2021/01/06 11:42:19;;;;;;;65.50;32.15;;;;;;;3.68;72.08;99453.31;1707292;83;21392;-43
2021/01/06 11:45:10;;;;;;;65.45;31.37;;;;;;;3.55;72.23;99446.19;1678249;84;21039;-43
2021/01/06 11:48:01;;;;;;;57.85;29.23;;;;;;;3.42;72.52;99446.55;1705760;83;21702;-43
2021/01/06 11:50:45;;;;;;;51.77;28.30;;;;;;;3.38;72.80;99454.17;1727059;83;21126;-42
2021/01/06 11:53:27;;;;;;;51.23;27.50;;;;;;;3.46;72.95;99453.41;1710483;83;21133;-43
2021/01/06 11:56:22;;;;;;;48.75;28.52;;;;;;;3.51;72.82;99461.31;1706820;83;22246;-44
2021/01/06 11:59:27;;;;;;;61.42;27.95;;;;;;;3.54;72.63;99481.33;1719277;83;21180;-42
2021/01/06 12:02:27;;;;;;;60.85;28.00;;;;;;;3.48;72.62;99484.73;1702525;83;21032;-43
2021/01/06 12:05:31;;;;;;;53.42;29.37;;;;;;;3.40;72.77;99486.80;1699404;83;21198;-42
2021/01/06 12:08:24;;;;;;;54.15;28.90;;;;;;;3.39;72.78;99493.25;1712611;83;21421;-43
2021/01/06 12:11:17;;;;;;;50.33;29.00;;;;;;;3.45;72.68;99494.70;1676725;83;21310;-43
2021/01/06 12:14:00;;;;;;;61.37;30.80;;;;;;;3.45;72.68;99490.14;1704096;82;21198;-43
2021/01/06 12:16:50;;;;;;;62.43;30.12;;;;;;;3.45;72.76;99495.50;1699658;83;21565;-42
2021/01/06 12:19:56;;;;;;;60.25;29.87;;;;;;;3.46;72.81;99496.29;1727045;83;21133;-43
2021/01/06 12:22:24;;;;;;;52.80;27.80;;;;;;;3.47;72.79;99495.20;1706526;83;21000;-42
2021/01/06 12:24:56;;;;;;;;;;;;;;;3.44;72.73;99501.16;1712204;83;23664;-43
2021/01/06 12:27:37;;;;;;;;;;;;;;;3.37;72.66;99489.56;1739391;82;20800;-43
2021/01/06 12:30:14;;;;;;;47.38;26.02;;;;;;;3.45;72.65;99496.05;1713640;82;20192;-42
2021/01/06 12:32:53;;;;;;;56.35;28.70;;;;;;;3.38;72.84;99493.83;1765916;80;21378;-42